Time;durP1;ratioP1;P1;durP2;ratioP2;P2;SDS_P1;SDS_P2;PMS_P1;PMS_P2;Temp;Humidity;BMP_temperature;BMP_pressure;BME280_temperature;BME280_humidity;BME280_pressure;Samples;Min_cycle;Max_cycle;Signal;HPM_P1;HPM_P2
2022/11/09 00:01:04;;;;;;;0.30;0.30;;;20.10;62.00;;;20.11;45.12;94903.53;4867243;29;20211;-73
2022/11/09 00:03:31;;;;;;;0.45;0.45;;;20.10;61.90;;;20.12;44.96;94907.78;4867072;29;20277;-74
2022/11/09 00:05:59;;;;;;;0.50;0.50;;;20.10;62.00;;;20.12;44.80;94913.13;4851795;29;20208;-73
2022/11/09 00:08:27;;;;;;;0.50;0.50;;;20.10;62.10;;;20.07;44.99;94900.56;4866666;29;20201;-74
2022/11/09 00:11:00;;;;;;;0.50;0.50;;;20.10;62.10;;;20.12;44.95;94903.25;4846622;29;20209;-74
2022/11/09 00:13:27;;;;;;;0.50;0.50;;;20.10;62.10;;;20.11;44.76;94898.19;4844951;29;20639;-73
2022/11/09 00:15:58;;;;;;;0.40;0.40;;;20.10;62.10;;;20.12;44.52;94891.81;4826761;29;20219;-73
2022/11/09 00:18:25;;;;;;;0.50;0.50;;;20.10;62.10;;;20.10;44.83;94889.41;4843724;29;20263;-74
2022/11/09 00:20:53;;;;;;;0.40;0.40;;;20.10;62.00;;;20.11;45.04;94885.66;4829745;29;20223;-74
2022/11/09 00:23:21;;;;;;;0.43;0.43;;;20.10;62.10;;;20.11;44.74;94892.88;4814081;29;20204;-73
2022/11/09 00:25:49;;;;;;;0.40;0.40;;;20.00;61.90;;;20.11;44.94;94888.34;4815221;29;20199;-73
2022/11/09 00:28:16;;;;;;;0.40;0.40;;;20.10;62.00;;;20.10;45.06;94889.41;4829863;29;20195;-74
2022/11/09 00:30:43;;;;;;;0.50;0.50;;;20.00;61.90;;;20.10;44.58;94889.41;4829855;29;20291;-74
2022/11/09 00:33:11;;;;;;;0.50;0.50;;;20.10;62.00;;;20.12;44.72;94891.81;4829738;29;20237;-73
2022/11/09 00:35:41;;;;;;;0.38;0.38;;;20.10;62.00;;;20.10;44.52;94888.59;4844947;29;20206;-74
2022/11/09 00:38:08;;;;;;;0.30;0.30;;;20.10;62.00;;;20.11;44.97;94883.00;4844501;29;20219;-74
2022/11/09 00:40:37;;;;;;;0.40;0.40;;;20.10;62.00;;;20.10;44.94;94883.25;4829984;29;20640;-74
2022/11/09 00:43:04;;;;;;;0.35;0.35;;;20.00;61.90;;;20.10;45.23;94889.41;4829423;29;20218;-74
2022/11/09 00:45:31;;;;;;;0.47;0.47;;;20.00;61.90;;;20.09;44.68;94893.13;4844623;29;20624;-73
2022/11/09 00:47:58;;;;;;;0.40;0.40;;;20.10;62.00;;;20.09;44.78;94893.13;4799130;29;20250;-73
2022/11/09 00:50:25;;;;;;;0.43;0.43;;;20.00;61.90;;;20.10;44.96;94900.06;4844468;29;20204;-73
2022/11/09 00:52:53;;;;;;;0.50;0.50;;;20.10;61.90;;;20.09;44.78;94895.78;4829261;29;20214;-73
2022/11/09 00:55:22;;;;;;;0.50;0.50;;;20.00;61.90;;;20.08;44.65;94888.03;4814100;29;20239;-73
2022/11/09 00:57:50;;;;;;;0.40;0.40;;;20.10;61.90;;;20.08;45.06;94891.50;4829241;29;20207;-74
2022/11/09 01:00:22;;;;;;;0.50;0.50;;;20.00;61.90;;;20.09;44.74;94893.13;4829463;29;20674;-74
2022/11/09 01:02:49;;;;;;;0.40;0.40;;;20.10;61.90;;;20.07;44.83;94881.13;4829208;29;20246;-74
2022/11/09 01:05:18;;;;;;;0.45;0.45;;;20.00;61.90;;;20.07;44.96;94879.25;4844754;29;20515;-74
2022/11/09 01:07:47;;;;;;;0.40;0.40;;;20.00;61.80;;;19.99;44.72;94874.38;4830244;29;20204;-74
2022/11/09 01:10:14;;;;;;;0.47;0.47;;;20.00;61.80;;;20.00;44.83;94865.34;4845040;29;20267;-74
2022/11/09 01:12:42;;;;;;;0.50;0.50;;;20.00;61.90;;;20.07;44.62;94881.13;4826693;29;20333;-74
2022/11/09 01:15:09;;;;;;;0.35;0.35;;;20.00;61.90;;;20.07;44.66;94887.25;4813971;29;20206;-74
2022/11/09 01:17:36;;;;;;;0.40;0.40;;;20.00;61.90;;;20.07;44.70;94895.22;4844233;29;20628;-74
2022/11/09 01:20:04;;;;;;;0.50;0.50;;;20.00;61.90;;;20.05;44.87;94897.31;4843736;29;20306;-74
2022/11/09 01:22:31;;;;;;;0.40;0.40;;;20.00;61.80;;;20.04;44.69;94898.38;4828886;29;20230;-74
2022/11/09 01:24:58;;;;;;;0.40;0.40;;;20.00;61.90;;;20.07;44.59;94899.75;4829066;29;20302;-74
2022/11/09 01:27:25;;;;;;;0.45;0.45;;;20.00;62.80;;;20.06;45.01;94896.28;4813774;29;20203;-74
2022/11/09 01:29:52;;;;;;;0.40;0.40;;;20.00;61.90;;;20.04;44.57;94898.38;4827902;29;20208;-74
2022/11/09 01:32:19;;;;;;;0.45;0.45;;;20.00;61.90;;;20.05;44.87;94897.31;4843717;29;20198;-73
2022/11/09 01:34:47;;;;;;;0.45;0.45;;;20.00;61.90;;;20.06;44.93;94898.94;4843767;29;20199;-74
2022/11/09 01:37:14;;;;;;;0.45;0.45;;;20.00;62.80;;;20.05;44.58;94893.88;4843521;29;20727;-74
2022/11/09 01:39:41;;;;;;;0.30;0.30;;;20.00;61.90;;;20.05;45.00;94894.66;4843659;29;20274;-74
2022/11/09 01:42:08;;;;;;;0.40;0.40;;;20.00;61.90;;;20.05;44.78;94891.22;4843625;29;20203;-74
2022/11/09 01:44:38;;;;;;;0.50;0.50;;;20.00;61.90;;;20.00;44.59;94887.44;4844504;29;20196;-74
2022/11/09 01:47:20;;;;;;;0.50;0.50;;;20.00;61.90;;;19.96;44.80;94883.66;4843491;29;20214;-74
2022/11/09 01:49:55;;;;;;;0.38;0.38;;;20.00;61.90;;;20.04;44.57;94889.59;4843651;29;20608;-74
2022/11/09 01:52:30;;;;;;;0.40;0.40;;;20.00;61.90;;;20.03;44.91;94888.81;4828464;29;20236;-74
2022/11/09 01:55:05;;;;;;;0.50;0.50;;;20.00;61.90;;;20.03;44.53;94883.50;4828152;29;20199;-74
2022/11/09 01:57:49;;;;;;;0.60;0.60;;;20.00;61.90;;;20.01;44.78;94874.94;4843350;29;20634;-74
2022/11/09 02:00:17;;;;;;;0.47;0.47;;;20.00;61.90;;;20.02;44.73;94887.19;4843268;29;20541;-74
2022/11/09 02:03:24;;;;;;;0.50;0.50;;;20.00;61.90;;;19.93;45.14;94868.22;4843369;29;20215;-74
2022/11/09 02:05:52;;;;;;;0.50;0.50;;;20.00;61.90;;;19.95;45.09;94857.31;4810539;29;20211;-74
2022/11/09 02:08:22;;;;;;;0.40;0.40;;;20.00;61.80;;;19.98;45.15;94865.59;4843029;29;20290;-74
2022/11/09 02:11:12;;;;;;;0.40;0.40;;;20.00;61.80;;;19.97;45.06;94869.31;4829961;29;20191;-74
2022/11/09 02:13:55;;;;;;;0.40;0.40;;;19.90;61.80;;;19.96;45.19;94865.03;4862158;29;20193;-74
2022/11/09 02:16:23;;;;;;;0.40;0.40;;;20.00;61.90;;;19.97;45.10;94868.53;4861678;29;20225;-74
2022/11/09 02:18:56;;;;;;;0.38;0.38;;;19.90;61.80;;;19.97;44.75;94865.88;4861731;29;20626;-74
2022/11/09 02:21:28;;;;;;;0.50;0.50;;;19.90;61.80;;;19.97;44.63;94871.19;4816044;29;20197;-74
2022/11/09 02:23:56;;;;;;;0.30;0.30;;;19.90;61.80;;;19.96;44.76;94873.03;4846432;29;20182;-74
2022/11/09 02:26:43;;;;;;;0.50;0.50;;;19.90;61.80;;;19.96;44.78;94874.91;4846175;29;20222;-74
2022/11/09 02:29:18;;;;;;;0.43;0.43;;;19.90;61.90;;;19.95;44.64;94867.97;4846126;29;20226;-74
2022/11/09 02:32:03;;;;;;;0.50;0.50;;;19.90;61.80;;;19.94;44.96;94863.69;4861476;29;20312;-74
2022/11/09 02:34:30;;;;;;;0.50;0.50;;;19.90;61.80;;;19.93;45.00;94862.91;4861711;29;20555;-74
2022/11/09 02:36:57;;;;;;;0.40;0.40;;;19.90;61.90;;;19.94;45.20;94864.47;4830967;29;20225;-74
2022/11/09 02:39:26;;;;;;;0.40;0.40;;;19.90;61.80;;;19.93;44.86;94865.56;4845734;29;20649;-74
2022/11/09 02:42:02;;;;;;;0.60;0.60;;;19.90;61.80;;;19.95;44.83;94867.97;4862465;29;20533;-74
2022/11/09 02:44:42;;;;;;;0.60;0.60;;;19.90;61.80;;;19.93;44.62;94857.56;4850592;29;20292;-74
2022/11/09 02:47:10;;;;;;;0.40;0.40;;;19.90;61.90;;;19.89;44.75;94855.66;4878317;29;20519;-74
2022/11/09 02:49:36;;;;;;;0.40;0.40;;;19.90;61.80;;;19.94;45.02;94858.38;4849828;29;20563;-74
2022/11/09 02:52:04;;;;;;;0.47;0.47;;;19.90;61.80;;;19.94;45.04;94861.81;4819489;29;20623;-74
2022/11/09 02:54:31;;;;;;;0.50;0.50;;;19.90;61.80;;;19.94;45.00;94863.69;4834321;29;20233;-74
2022/11/09 02:56:59;;;;;;;0.50;0.50;;;19.90;61.90;;;19.95;45.08;94854.66;4819559;29;20249;-74
2022/11/09 02:59:27;;;;;;;0.60;0.60;;;19.90;61.90;;;19.94;44.63;94845.84;4849447;29;20254;-74
2022/11/09 03:01:54;;;;;;;0.50;0.50;;;19.90;61.90;;;19.94;44.56;94861.81;4834081;29;20217;-74
2022/11/09 03:04:21;;;;;;;0.40;0.40;;;19.90;61.90;;;19.94;44.60;94858.38;4849470;29;20210;-74
2022/11/09 03:06:49;;;;;;;0.40;0.40;;;19.90;61.80;;;19.94;44.71;94856.50;4834220;29;20218;-74
2022/11/09 03:09:18;;;;;;;0.50;0.50;;;19.90;61.90;;;19.94;44.89;94861.03;4834164;29;20206;-74
2022/11/09 03:11:45;;;;;;;0.50;0.50;;;19.90;61.90;;;19.89;44.74;94858.31;4849020;29;20302;-74
2022/11/09 03:14:15;;;;;;;0.40;0.40;;;19.90;61.80;;;19.93;44.70;94864.75;4849495;29;20206;-74
2022/11/09 03:16:49;;;;;;;0.50;0.50;;;19.90;61.90;;;19.92;44.81;94863.94;4820714;29;20221;-74
2022/11/09 03:19:18;;;;;;;0.50;0.50;;;19.90;61.90;;;19.91;45.08;94857.00;4848715;29;20203;-74
2022/11/09 03:21:48;;;;;;;0.50;0.50;;;19.90;61.90;;;19.92;44.97;94865.78;4849483;29;20187;-74
2022/11/09 03:24:20;;;;;;;0.50;0.50;;;19.90;61.80;;;19.93;45.13;94864.75;4849802;29;20281;-77
2022/11/09 03:26:50;;;;;;;0.50;0.50;;;19.90;61.80;;;19.86;44.84;94856.16;4864210;29;20210;-75
2022/11/09 03:29:17;;;;;;;0.50;0.50;;;19.90;61.80;;;19.89;45.18;94864.44;4848947;29;20233;-74
2022/11/09 03:31:45;;;;;;;0.30;0.30;;;19.90;61.80;;;19.90;44.58;94860.72;4848925;29;20245;-75
2022/11/09 03:34:12;;;;;;;0.60;0.60;;;19.90;61.90;;;19.91;44.99;94865.00;4849574;29;20210;-75
2022/11/09 03:36:39;;;;;;;0.50;0.50;;;19.90;61.80;;;19.91;44.78;94862.34;4864831;29;20218;-75
2022/11/09 03:39:07;;;;;;;0.50;0.50;;;19.90;61.80;;;19.90;45.05;94857.28;4846328;29;20214;-77
2022/11/09 03:41:34;;;;;;;0.40;0.40;;;19.90;61.90;;;19.87;44.67;94852.44;4833438;29;20201;-75
2022/11/09 03:44:02;;;;;;;0.40;0.40;;;19.90;62.80;;;19.91;44.98;94872.16;4830676;29;20198;-77
2022/11/09 03:46:29;;;;;;;0.43;0.43;;;19.90;61.90;;;19.89;44.66;94868.97;4856749;29;20617;-74
2022/11/09 03:48:57;;;;;;;0.50;0.50;;;19.90;61.90;;;19.86;44.71;94866.78;4833673;29;20217;-77
2022/11/09 03:51:24;;;;;;;0.47;0.47;;;19.90;61.90;;;19.87;44.55;94861.22;4833484;29;20639;-76
2022/11/09 03:53:52;;;;;;;0.40;0.40;;;19.90;61.80;;;19.86;44.79;94853.50;4848190;29;20202;-76
2022/11/09 03:56:19;;;;;;;0.40;0.40;;;19.90;61.80;;;19.89;45.17;94864.44;4863660;29;20236;-74
2022/11/09 03:58:46;;;;;;;0.43;0.43;;;19.90;61.90;;;19.88;44.64;94862.03;4848784;29;20202;-76
2022/11/09 04:01:14;;;;;;;0.40;0.40;;;19.90;61.80;;;19.89;44.63;94868.97;4833340;29;20778;-74
2022/11/09 04:03:41;;;;;;;0.45;0.45;;;19.90;61.80;;;19.89;44.74;94864.44;4849189;29;20192;-75
2022/11/09 04:06:08;;;;;;;0.40;0.40;;;19.90;61.90;;;19.88;44.66;94859.38;4833299;29;20258;-74
2022/11/09 04:08:36;;;;;;;0.40;0.40;;;19.90;61.90;;;19.89;44.60;94858.31;4818195;29;20206;-74
2022/11/09 04:11:03;;;;;;;0.40;0.40;;;19.90;61.90;;;19.88;44.84;94865.50;4864402;29;20234;-74
2022/11/09 04:13:30;;;;;;;0.50;0.50;;;19.80;61.70;;;19.88;44.68;94864.69;4848688;29;20262;-74
2022/11/09 04:15:58;;;;;;;0.50;0.50;;;19.90;61.80;;;19.87;44.92;94855.88;4864246;29;20642;-74
2022/11/09 04:18:25;;;;;;;0.50;0.50;;;19.90;61.80;;;19.86;44.63;94856.97;4833026;29;20225;-74
2022/11/09 04:20:52;;;;;;;0.50;0.50;;;19.90;61.90;;;19.87;44.87;94860.41;4833062;29;20198;-74
2022/11/09 04:23:19;;;;;;;0.40;0.40;;;19.80;61.70;;;19.86;44.82;94853.50;4833242;29;20194;-74
2022/11/09 04:25:47;;;;;;;0.45;0.45;;;19.90;61.90;;;19.87;44.76;94860.41;4817979;29;20202;-74
2022/11/09 04:28:18;;;;;;;0.47;0.47;;;19.90;61.90;;;19.87;45.04;94857.75;4848096;29;20203;-74
2022/11/09 04:30:45;;;;;;;0.60;0.60;;;19.80;61.80;;;19.79;45.21;94845.69;4817565;29;20206;-74
2022/11/09 04:33:13;;;;;;;0.50;0.50;;;19.80;61.70;;;19.86;44.99;94853.50;4847919;29;20311;-74
2022/11/09 04:35:40;;;;;;;0.40;0.40;;;19.80;61.70;;;19.87;45.16;94855.09;4847991;29;20674;-74
2022/11/09 04:38:12;;;;;;;0.40;0.40;;;19.80;61.80;;;19.80;44.70;94837.44;4847744;29;20230;-74
2022/11/09 04:40:39;;;;;;;0.50;0.50;;;19.80;61.70;;;19.82;45.00;94847.84;4862758;29;20179;-74
2022/11/09 04:43:11;;;;;;;0.52;0.52;;;19.80;61.70;;;19.84;44.48;94843.09;4832528;29;20202;-74
2022/11/09 04:45:38;;;;;;;0.50;0.50;;;19.80;61.80;;;19.84;45.00;94845.75;4847943;29;20269;-76
2022/11/09 04:48:06;;;;;;;0.50;0.50;;;19.80;61.80;;;19.84;44.92;94848.44;4863000;29;20249;-76
2022/11/09 04:50:34;;;;;;;0.40;0.40;;;19.80;61.80;;;19.84;44.77;94851.09;4832463;29;20210;-76
2022/11/09 04:53:10;;;;;;;0.50;0.50;;;19.80;62.20;;;19.81;44.87;94844.38;4847399;29;20206;-76
2022/11/09 04:55:39;;;;;;;0.50;0.50;;;19.80;61.80;;;19.80;44.56;94848.09;4863054;29;20281;-76
2022/11/09 04:58:07;;;;;;;0.40;0.40;;;19.80;61.70;;;19.83;44.69;94847.63;4847588;29;20222;-76
2022/11/09 05:00:35;;;;;;;0.40;0.40;;;19.80;61.70;;;19.83;44.71;94844.97;4862398;29;20310;-76
2022/11/09 05:03:05;;;;;;;0.40;0.40;;;19.80;61.80;;;19.80;45.04;94839.31;4862691;29;20214;-76
2022/11/09 05:05:34;;;;;;;0.50;0.50;;;19.80;61.70;;;19.82;45.20;94839.84;4862489;29;20555;-76
2022/11/09 05:08:01;;;;;;;0.40;0.40;;;19.80;61.80;;;19.80;44.84;94840.09;4847312;29;20634;-76
2022/11/09 05:10:29;;;;;;;0.40;0.40;;;19.80;61.70;;;19.82;44.96;94840.66;4862060;29;20210;-76
2022/11/09 05:13:05;;;;;;;0.40;0.40;;;19.80;61.80;;;19.81;44.92;94831.06;4847212;29;20273;-76
2022/11/09 05:15:34;;;;;;;0.50;0.50;;;19.80;61.70;;;19.81;44.72;94824.94;4829042;29;20552;-76
2022/11/09 05:18:02;;;;;;;0.40;0.40;;;19.80;61.70;;;19.80;44.95;94837.44;4843898;29;20722;-76
2022/11/09 05:20:30;;;;;;;0.40;0.40;;;19.80;61.80;;;19.80;44.51;94840.09;4863060;29;20222;-76
2022/11/09 05:25:45;;;;;;;0.50;0.50;;;19.80;61.80;;;19.74;45.04;94830.47;4849959;29;20226;-76
2022/11/09 05:28:13;;;;;;;0.40;0.40;;;19.80;61.80;;;19.79;45.17;94835.03;4862819;29;20630;-76
2022/11/09 05:30:41;;;;;;;0.50;0.50;;;19.70;61.70;;;19.79;45.11;94833.19;4831701;29;20195;-76
2022/11/09 05:33:08;;;;;;;0.50;0.50;;;19.80;61.80;;;19.79;44.75;94835.03;4832175;29;20217;-76
2022/11/09 05:35:35;;;;;;;0.47;0.47;;;19.80;61.80;;;19.76;44.76;94833.69;4847301;29;20241;-76
2022/11/09 05:38:02;;;;;;;0.50;0.50;;;19.80;61.80;;;19.78;44.56;94836.88;4846941;29;20554;-76
2022/11/09 05:40:31;;;;;;;0.50;0.50;;;19.80;61.80;;;19.79;45.22;94837.72;4831827;29;20527;-76
2022/11/09 05:42:58;;;;;;;0.60;0.60;;;19.80;61.80;;;19.79;45.06;94843.03;4832028;29;20254;-76
2022/11/09 05:45:25;;;;;;;0.40;0.40;;;19.80;61.80;;;19.78;44.73;94844.06;4846721;29;20547;-76
2022/11/09 05:48:12;;;;;;;0.30;0.30;;;19.80;61.80;;;19.78;44.74;94849.41;4829817;29;20237;-76
2022/11/09 05:50:41;;;;;;;0.50;0.50;;;19.80;61.70;;;19.77;45.06;94847.78;4846797;29;20712;-76
2022/11/09 05:53:13;;;;;;;0.40;0.40;;;19.80;62.60;;;19.72;44.69;94845.88;4847377;29;20202;-76
2022/11/09 05:55:41;;;;;;;0.40;0.40;;;19.80;61.70;;;19.73;45.26;94844.81;4846905;29;20210;-76
2022/11/09 05:58:08;;;;;;;0.40;0.40;;;19.80;61.80;;;19.78;44.81;94857.38;4846607;29;20676;-76
2022/11/09 06:00:36;;;;;;;0.50;0.50;;;19.70;61.70;;;19.73;45.08;94844.03;4861916;29;20345;-76
2022/11/09 06:03:09;;;;;;;0.40;0.40;;;19.80;61.80;;;19.70;44.77;94850.66;4831915;29;20698;-76
2022/11/09 06:05:38;;;;;;;0.40;0.40;;;19.80;61.80;;;19.75;44.55;94849.88;4861670;29;20202;-76
2022/11/09 06:08:12;;;;;;;0.50;0.50;;;19.80;61.80;;;19.75;45.00;94852.56;4828397;29;20216;-76
2022/11/09 06:10:41;;;;;;;0.50;0.50;;;19.70;61.70;;;19.76;44.67;94862.97;4831055;29;20211;-76
2022/11/09 06:13:09;;;;;;;0.50;0.50;;;19.80;61.80;;;19.76;45.10;94864.81;4861817;29;20682;-76
2022/11/09 06:15:36;;;;;;;0.50;0.50;;;19.70;61.70;;;19.74;45.05;94870.38;4861537;29;20202;-76
2022/11/09 06:18:03;;;;;;;0.40;0.40;;;19.70;61.70;;;19.76;44.73;94872.78;4846554;29;20230;-76
2022/11/09 06:20:32;;;;;;;0.50;0.50;;;19.70;61.70;;;19.74;44.80;94875.72;4861591;29;20289;-76
2022/11/09 06:23:01;;;;;;;0.40;0.40;;;19.80;61.80;;;19.70;44.82;94871.13;4846072;29;20204;-76
2022/11/09 06:25:32;;;;;;;0.50;0.50;;;19.70;61.80;;;19.73;44.69;94873.31;4854486;29;20186;-76
2022/11/09 06:27:59;;;;;;;0.50;0.50;;;19.70;61.80;;;19.71;44.69;94878.06;4816118;29;20203;-76
2022/11/09 06:30:27;;;;;;;0.50;0.50;;;19.70;61.80;;;19.73;44.74;94878.63;4831336;29;20201;-76
2022/11/09 06:32:59;;;;;;;0.50;0.50;;;19.70;61.80;;;19.70;45.00;94877.28;4861619;29;20281;-76
2022/11/09 06:35:27;;;;;;;0.50;0.50;;;19.70;61.80;;;19.74;45.16;94891.69;4876747;29;20214;-76
2022/11/09 06:37:57;;;;;;;0.50;0.50;;;19.70;61.70;;;19.65;45.03;94885.19;4846268;29;20229;-76
2022/11/09 06:40:25;;;;;;;0.45;0.45;;;19.70;61.80;;;19.73;45.05;94900.72;4861312;29;20214;-76
2022/11/09 06:42:55;;;;;;;0.40;0.40;;;19.70;61.70;;;19.72;44.96;94898.31;4846126;29;20634;-76
2022/11/09 06:45:23;;;;;;;0.40;0.40;;;19.70;61.80;;;19.72;45.13;94896.44;4846134;29;20198;-76
2022/11/09 06:47:53;;;;;;;0.50;0.50;;;19.70;61.70;;;19.73;45.15;94905.25;4831172;29;20206;-76
2022/11/09 06:50:21;;;;;;;0.50;0.50;;;19.70;61.80;;;19.70;44.61;94903.88;4831109;29;20288;-76
2022/11/09 06:52:48;;;;;;;0.40;0.40;;;19.70;61.80;;;19.72;45.07;94901.75;4861409;29;20206;-76
2022/11/09 06:55:16;;;;;;;0.47;0.47;;;19.70;61.80;;;19.64;44.90;94899.53;4831075;29;20229;-76
2022/11/09 06:57:43;;;;;;;0.50;0.50;;;19.70;61.80;;;19.68;44.79;94900.66;4846049;29;20219;-76
2022/11/09 07:00:11;;;;;;;0.50;0.50;;;19.70;61.80;;;19.71;44.70;94908.13;4845750;29;20282;-76
2022/11/09 07:02:38;;;;;;;0.50;0.50;;;19.70;61.80;;;19.71;44.84;94902.03;4861276;29;20281;-76
2022/11/09 07:05:07;;;;;;;0.52;0.52;;;19.70;61.80;;;19.72;45.21;94903.63;4815550;29;20657;-76
2022/11/09 07:07:35;;;;;;;0.50;0.50;;;19.70;61.80;;;19.71;45.20;94902.03;4846055;29;20205;-76
2022/11/09 07:10:03;;;;;;;0.50;0.50;;;19.70;61.80;;;19.71;45.07;94892.16;4830795;29;20326;-76
2022/11/09 07:12:32;;;;;;;0.50;0.50;;;19.70;61.80;;;19.71;44.71;94878.06;4845917;29;20234;-76
2022/11/09 07:14:59;;;;;;;0.60;0.60;;;19.70;61.80;;;19.70;44.97;94869.28;4846318;29;20202;-76
2022/11/09 07:17:31;;;;;;;0.40;0.40;;;19.70;61.80;;;19.63;45.04;94868.69;4861165;29;20705;-76
2022/11/09 07:19:59;;;;;;;0.50;0.50;;;19.70;61.80;;;19.71;45.12;94897.47;4860932;29;20266;-76
2022/11/09 07:22:27;;;;;;;0.40;0.40;;;19.70;61.80;;;19.63;44.87;94884.66;4846065;29;20198;-76
2022/11/09 07:24:54;;;;;;;0.50;0.50;;;19.70;61.80;;;19.70;44.68;94892.41;4846012;29;20198;-76
2022/11/09 07:27:23;;;;;;;0.50;0.50;;;19.70;61.80;;;19.67;45.10;94896.38;4860952;29;20213;-75
2022/11/09 07:30:00;;;;;;;0.40;0.40;;;19.70;61.80;;;19.63;44.75;94904.06;4833770;29;20202;-74
2022/11/09 07:32:33;;;;;;;0.40;0.40;;;19.70;61.70;;;19.68;44.79;94917.41;4864215;29;20596;-76
2022/11/09 07:35:25;;;;;;;0.50;0.50;;;19.70;61.70;;;19.68;44.82;94925.41;4840453;29;20239;-74
2022/11/09 07:38:00;;;;;;;0.50;0.50;;;19.70;61.80;;;19.68;44.60;94924.63;4864599;29;20205;-76
2022/11/09 07:40:35;;;;;;;0.50;0.50;;;19.70;61.70;;;19.66;44.86;94919.53;4849273;29;20285;-75
2022/11/09 07:43:14;;;;;;;0.45;0.45;;;19.70;61.70;;;19.65;44.91;94909.13;4849204;29;20225;-76
2022/11/09 07:45:56;;;;;;;0.30;0.30;;;19.70;61.80;;;19.66;45.21;94914.22;4864633;29;20208;-74
2022/11/09 07:48:24;;;;;;;0.45;0.45;;;19.70;61.80;;;19.66;45.12;94908.09;4849387;29;20217;-74
2022/11/09 07:51:11;;;;;;;0.50;0.50;;;19.70;61.70;;;19.65;44.96;94909.13;4863943;29;20187;-75
2022/11/09 07:53:50;;;;;;;0.40;0.40;;;19.70;61.80;;;19.65;45.06;94922.44;4863982;29;20206;-74
2022/11/09 07:56:35;;;;;;;0.40;0.40;;;19.70;61.80;;;19.64;44.80;94916.31;4850285;29;20266;-74
2022/11/09 07:59:22;;;;;;;0.40;0.40;;;19.70;61.90;;;19.63;45.06;94913.91;4849690;29;20226;-77
2022/11/09 08:09:15;;;;;;;0.60;0.60;;;19.60;61.70;;;19.55;45.06;94909.03;4859173;29;20252;-76
2022/11/09 08:11:47;;;;;;;0.40;0.40;;;19.60;61.70;;;19.55;45.06;94907.16;4863959;29;20196;-74
2022/11/09 08:14:26;;;;;;;0.50;0.50;;;19.60;61.80;;;19.57;45.01;94906.94;4864110;29;20608;-74
2022/11/09 08:17:01;;;;;;;0.50;0.50;;;19.60;61.80;;;19.58;44.74;94912.00;4864280;29;20206;-76
2022/11/09 08:19:35;;;;;;;0.40;0.40;;;19.60;61.80;;;19.58;44.64;94911.19;4848771;29;20645;-75
2022/11/09 08:22:15;;;;;;;0.60;0.60;;;19.60;61.80;;;19.56;44.76;94911.44;4848626;29;20214;-75
2022/11/09 08:24:48;;;;;;;0.63;0.63;;;19.60;61.80;;;19.59;44.82;94918.09;4848248;29;20202;-74
2022/11/09 08:27:26;;;;;;;0.50;0.50;;;19.60;61.80;;;19.60;44.61;94917.06;4863609;29;20178;-74
2022/11/09 08:30:20;;;;;;;0.40;0.40;;;19.60;61.80;;;19.57;44.79;94918.38;4864654;29;20206;-74
2022/11/09 08:33:05;;;;;;;0.40;0.40;;;19.60;61.90;;;19.49;44.88;94903.66;4864490;29;20182;-74
2022/11/09 08:35:33;;;;;;;0.50;0.50;;;19.60;61.80;;;19.56;45.11;94910.63;4864598;29;20198;-75
2022/11/09 08:38:03;;;;;;;0.40;0.40;;;19.60;61.80;;;19.59;44.88;94923.44;4863424;29;20313;-74
2022/11/09 08:40:32;;;;;;;0.50;0.50;;;19.60;61.80;;;19.60;44.77;94923.16;4847799;29;20593;-73
2022/11/09 08:43:05;;;;;;;0.50;0.50;;;19.60;61.90;;;19.59;45.17;94918.09;4848066;29;20539;-75
2022/11/09 08:45:35;;;;;;;0.50;0.50;;;19.60;61.80;;;19.61;45.27;94929.31;4863355;29;20309;-74
2022/11/09 08:48:04;;;;;;;0.52;0.52;;;19.60;61.80;;;19.60;45.13;94928.50;4832905;29;20299;-76
2022/11/09 08:50:32;;;;;;;0.50;0.50;;;19.60;61.80;;;19.61;44.88;94921.34;4862979;29;20315;-76
2022/11/09 08:53:07;;;;;;;0.45;0.45;;;19.60;61.80;;;19.59;44.64;94921.59;4863175;29;20629;-76
2022/11/09 08:55:36;;;;;;;0.50;0.50;;;19.60;61.80;;;19.62;44.81;94918.41;4863080;29;20190;-74
2022/11/09 08:58:04;;;;;;;0.40;0.40;;;19.60;61.90;;;19.61;44.93;94914.13;4862742;29;20241;-75
2022/11/09 09:00:36;;;;;;;0.45;0.45;;;19.60;61.80;;;19.62;44.75;94914.97;4832242;29;20210;-77
2022/11/09 09:03:04;;;;;;;0.40;0.40;;;19.60;61.80;;;19.63;44.88;94919.25;4862975;29;20179;-76
2022/11/09 09:05:34;;;;;;;0.50;0.50;;;19.60;61.80;;;19.63;44.89;94916.56;4847556;29;20205;-74
2022/11/09 09:08:05;;;;;;;0.50;0.50;;;19.60;61.80;;;19.65;44.60;94931.22;4862652;29;20336;-78
2022/11/09 09:10:34;;;;;;;0.40;0.40;;;19.60;61.80;;;19.63;45.00;94925.34;4862768;29;20290;-76
2022/11/09 09:13:03;;;;;;;0.52;0.52;;;19.60;61.80;;;19.63;45.22;94928.00;4862695;29;20210;-76
2022/11/09 09:15:30;;;;;;;0.50;0.50;;;19.60;61.80;;;19.65;45.05;94933.06;4863653;29;20233;-76
2022/11/09 09:18:01;;;;;;;0.55;0.55;;;19.60;61.80;;;19.64;44.84;94934.94;4832830;29;20221;-74
2022/11/09 09:20:30;;;;;;;0.50;0.50;;;19.60;61.80;;;19.64;45.24;94947.44;4847538;29;20652;-75
2022/11/09 09:22:59;;;;;;;0.60;0.60;;;19.70;61.80;;;19.65;45.24;94944.53;4847348;29;20622;-74
2022/11/09 09:25:27;;;;;;;0.50;0.50;;;19.60;61.80;;;19.66;44.64;94948.00;4847176;29;20551;-74
2022/11/09 09:27:58;;;;;;;0.50;0.50;;;19.60;61.80;;;19.63;44.97;94937.88;4862343;29;20206;-75
2022/11/09 09:30:28;;;;;;;0.50;0.50;;;19.60;61.70;;;19.66;44.79;94940.00;4847139;29;20202;-77
2022/11/09 09:32:59;;;;;;;0.50;0.50;;;19.60;61.70;;;19.63;44.78;94930.66;4863207;29;20254;-77
2022/11/09 09:35:28;;;;;;;0.52;0.52;;;19.60;61.80;;;19.64;44.89;94934.94;4862480;29;20220;-77
2022/11/09 09:37:56;;;;;;;0.45;0.45;;;19.70;61.80;;;19.66;44.73;94934.69;4862748;29;20218;-75
2022/11/09 09:41:11;;;;;;;0.50;0.50;;;19.60;61.70;;;19.64;44.76;94937.59;4862377;29;20194;-77
2022/11/09 09:43:54;;;;;;;0.47;0.47;;;19.60;61.70;;;19.64;45.04;94942.94;4848228;29;20262;-77
2022/11/09 09:46:57;;;;;;;0.55;0.55;;;19.70;61.80;;;19.63;45.09;94945.84;4862317;29;20226;-77
2022/11/09 09:49:31;;;;;;;0.50;0.50;;;19.60;61.70;;;19.61;45.01;94948.72;4847511;29;20212;-75
2022/11/09 09:52:20;;;;;;;0.50;0.50;;;19.60;61.70;;;19.62;44.59;94955.66;4861289;29;20194;-75
2022/11/09 09:55:38;;;;;;;0.43;0.43;;;19.60;61.70;;;19.60;44.61;94949.78;4862013;29;20637;-75
2022/11/09 09:58:33;;;;;;;0.50;0.50;;;19.60;61.70;;;19.59;44.63;94955.34;4862029;29;20234;-74
2022/11/09 10:01:21;;;;;;;0.50;0.50;;;19.60;61.70;;;19.59;44.64;94956.19;4847363;29;20495;-73
2022/11/09 10:03:51;;;;;;;0.40;0.40;;;19.60;61.70;;;19.60;44.98;94955.09;4862473;29;20198;-76
2022/11/09 10:06:30;;;;;;;0.50;0.50;;;19.60;61.80;;;19.62;45.06;94962.84;4862118;29;20173;-74
2022/11/09 10:09:28;;;;;;;0.45;0.45;;;19.60;61.70;;;19.59;44.70;94963.34;4846316;29;20703;-76
2022/11/09 10:12:37;;;;;;;0.50;0.50;;;19.60;61.70;;;19.58;44.77;94957.22;4861621;29;20190;-76
2022/11/09 10:15:29;;;;;;;0.50;0.50;;;19.60;61.80;;;19.57;45.14;94950.28;4861859;29;20209;-76
2022/11/09 10:18:29;;;;;;;0.40;0.40;;;19.60;61.80;;;19.56;45.17;94937.25;4861715;29;20210;-76
2022/11/09 10:21:54;;;;;;;0.50;0.50;;;19.60;61.70;;;19.56;45.13;94943.34;4861678;29;20226;-76
2022/11/09 10:24:42;;;;;;;0.55;0.55;;;19.60;61.70;;;19.57;44.85;94941.50;4861769;29;20217;-77
2022/11/09 10:27:37;;;;;;;0.40;0.40;;;19.60;61.70;;;19.59;45.08;94942.88;4861672;29;20551;-76
2022/11/09 10:30:16;;;;;;;0.30;0.30;;;19.60;61.70;;;19.59;44.62;94942.88;4861887;29;20201;-76
2022/11/09 10:32:53;;;;;;;0.50;0.50;;;19.60;61.80;;;19.60;45.00;94944.47;4831285;29;20221;-77
2022/11/09 10:35:44;;;;;;;0.50;0.50;;;19.60;61.80;;;19.60;45.11;94938.34;4861817;29;20602;-74
2022/11/09 10:38:22;;;;;;;0.50;0.50;;;19.60;61.80;;;19.44;45.14;94914.22;4862283;29;20289;-74
2022/11/09 10:41:22;;;;;;;0.50;0.50;;;19.60;61.80;;;19.60;44.68;94944.47;4848780;29;20525;-76
2022/11/09 10:44:17;;;;;;;0.43;0.43;;;19.60;61.70;;;19.60;45.13;94941.00;4862993;29;20186;-74
2022/11/09 10:47:08;;;;;;;0.50;0.50;;;19.60;61.70;;;19.57;44.61;94938.84;4849275;29;20307;-74
2022/11/09 10:50:34;;;;;;;0.60;0.60;;;19.60;61.70;;;19.57;45.21;94941.50;4849345;29;20295;-74
2022/11/09 10:53:26;;;;;;;0.60;0.60;;;19.60;61.80;;;19.55;44.63;94936.41;4848649;29;20193;-74